La Cygne, Kansas
Current Conditions -  °F | °C
As of 10:53 AM on Friday 24 Oct 2014 (Local Time) from KIXD Reporting Station
Clear Clear  
Wind Chill: 63°   Ceiling: Unl
Heat Index: 63°   Visibility: 10mi
Dew Point: 59°   Wind: 13mph
Humidity: 87%   Direction: 200°SSW
Pressure: 30.06"   Gusts: NA
Location:  38.35°N, 94.76°W
Report Text: KIXD 241553Z 20011KT 10SM CLR 17/15 A3006 RMK AO2 SLP175 T01720150
Loading
Personal Weather Stations






























Interactive Weather Map
Tropical Storm Tracking
New forecast layout! Learn more

10-Day Weather Forecast

Advertisements
Track Severe Weather on mobile